Ana Sayfa
METAR-TAF:

METAR-TAF

Havaalanları :

Beverly, Massachusetts, Amerika Birleşik Devletleri

Enlem: 42-35-01N, Boylam: 070-54-59W, yükseklik: 33 m

Güncel hava durumu gözlemi

Rapor saat 05:53 UTC de 58 dakika önce yapıldı.
Sakin rüzgar
Sıcaklık 18°C
Nem 88%
Basınç 1013 hPa
Görüş mesafesi: 16.1 km
9500 ft yükseklikte az bulutlu
12000 ft yükseklikte çok bulutlu

METAR: KBVY 240553Z AUTO 00000KT 10SM FEW095 OVC120 18/16 A2990 RMK AO2 SLP120 6//// T01780156 10194 20172 56007 PNO

Saat: 02:51 (06:51 UTC)


TAF: eksik

4.000'den fazla havaalanı için hava durumu gözlemleri ve tahminleri (METAR ve TAF raporları).

Kullanılabilir istasyonlar harita üzerinde sarı ve kırmızı noktalarla gösterilir.

İstasyonun adını görmek için fareyi noktanın üzerinde gezdirin.

Sonrasında hava gözlem ve tahminlerini görmek için tıklayın.

Haritayı değiştirmek için: yaklaştırmak için siyah artı işaretli yeşil düğmeye ve uzaklaştırmak için de eksi işaretli düğmeye hızla tıklayın; bitişik haritalar için yeşil okları kullanın.


METAR-TAF: